Time;durP1;ratioP1;P1;durP2;ratioP2;P2;SDS_P1;SDS_P2;PMS_P1;PMS_P2;Temp;Humidity;BMP_temperature;BMP_pressure;BME280_temperature;BME280_humidity;BME280_pressure;Samples;Min_cycle;Max_cycle;Signal;HPM_P1;HPM_P2
2022/06/27 00:01:01;;;;;;;14.07;7.22;;;;;;;;;;5020732;28;20837;-75
2022/06/27 00:03:27;;;;;;;14.98;7.95;;;;;;;;;;5023990;28;20874;-75
2022/06/27 00:05:53;;;;;;;14.27;7.47;;;;;;;;;;5022746;28;20876;-75
2022/06/27 00:08:20;;;;;;;19.27;8.27;;;;;;;;;;5019027;28;20059;-74
2022/06/27 00:10:46;;;;;;;16.50;7.72;;;;;;;;;;5024922;28;20029;-74
2022/06/27 00:13:12;;;;;;;15.85;8.40;;;;;;;;;;5021675;28;20029;-74
2022/06/27 00:15:38;;;;;;;18.20;8.30;;;;;;;;;;5027897;28;20033;-75
2022/06/27 00:18:04;;;;;;;17.88;8.23;;;;;;;;;;5023973;28;20045;-74
2022/06/27 00:20:30;;;;;;;15.10;6.32;;;;;;;;;;5029211;28;20033;-75
2022/06/27 00:22:56;;;;;;;12.65;4.95;;;;;;;;;;5027927;28;20145;-74
2022/06/27 00:25:22;;;;;;;11.25;5.05;;;;;;;;;;5027903;28;20449;-74
2022/06/27 00:27:48;;;;;;;14.10;4.57;;;;;;;;;;5026189;28;20112;-75
2022/06/27 00:30:14;;;;;;;11.98;4.53;;;;;;;;;;5027673;28;20151;-75
2022/06/27 00:32:40;;;;;;;10.38;4.03;;;;;;;;;;5020060;28;20111;-75
2022/06/27 00:35:08;;;;;;;8.65;4.10;;;;;;;;;;5027805;28;20239;-74
2022/06/27 00:37:34;;;;;;;10.98;4.75;;;;;;;;;;5012987;28;20115;-74
2022/06/27 00:40:00;;;;;;;9.77;4.65;;;;;;;;;;5028109;28;20030;-74
2022/06/27 00:42:26;;;;;;;14.25;3.97;;;;;;;;;;5023351;28;20475;-74
2022/06/27 00:44:52;;;;;;;13.85;5.30;;;;;;;;;;5028124;28;20030;-75
2022/06/27 00:47:18;;;;;;;14.80;5.47;;;;;;;;;;5023189;28;20042;-75
2022/06/27 00:49:44;;;;;;;18.48;4.25;;;;;;;;;;5023832;28;20057;-75
2022/06/27 00:52:12;;;;;;;9.50;3.30;;;;;;;;;;5026367;28;20037;-75
2022/06/27 00:54:40;;;;;;;6.00;2.70;;;;;;;;;;5028040;28;20858;-74
2022/06/27 00:57:07;;;;;;;8.48;2.63;;;;;;;;;;5026181;28;20041;-74
2022/06/27 00:59:33;;;;;;;10.90;2.72;;;;;;;;;;5024047;28;20037;-74
2022/06/27 01:02:01;;;;;;;9.90;2.67;;;;;;;;;;5027228;28;20037;-75
2022/06/27 01:04:27;;;;;;;10.73;2.70;;;;;;;;;;5015876;28;20029;-75
2022/06/27 01:06:53;;;;;;;8.95;3.13;;;;;;;;;;5027492;28;20195;-74
2022/06/27 01:09:20;;;;;;;9.57;3.08;;;;;;;;;;5024008;28;20136;-75
2022/06/27 01:11:46;;;;;;;13.10;5.10;;;;;;;;;;5027394;28;20416;-74
2022/06/27 01:14:13;;;;;;;8.68;4.70;;;;;;;;;;5026269;28;20057;-74
2022/06/27 01:16:42;;;;;;;8.48;4.15;;;;;;;;;;5027370;28;20485;-74
2022/06/27 01:19:12;;;;;;;12.77;5.43;;;;;;;;;;5016140;28;20045;-75
2022/06/27 01:21:40;;;;;;;14.48;4.75;;;;;;;;;;5027255;28;20029;-74
2022/06/27 01:24:07;;;;;;;9.02;3.83;;;;;;;;;;5024967;28;20072;-75
2022/06/27 01:26:33;;;;;;;13.68;3.13;;;;;;;;;;5027368;28;20573;-74
2022/06/27 01:28:59;;;;;;;12.27;3.53;;;;;;;;;;5022867;28;20430;-74
2022/06/27 01:31:25;;;;;;;7.85;2.55;;;;;;;;;;5027213;28;20116;-74
2022/06/27 01:33:51;;;;;;;6.78;2.65;;;;;;;;;;5024378;28;20108;-75
2022/06/27 01:39:01;;;;;;;9.48;3.80;;;;;;;;;;5020387;28;20041;-74
2022/06/27 01:41:27;;;;;;;10.13;3.67;;;;;;;;;;5030454;28;20029;-74
2022/06/27 01:43:53;;;;;;;8.80;3.33;;;;;;;;;;5027848;28;20038;-74
2022/06/27 01:46:19;;;;;;;9.90;3.40;;;;;;;;;;5018242;28;20059;-74
2022/06/27 01:48:45;;;;;;;10.07;3.22;;;;;;;;;;5022064;28;20128;-74
2022/06/27 01:51:12;;;;;;;10.75;2.28;;;;;;;;;;5019065;28;20551;-74
2022/06/27 01:53:38;;;;;;;8.15;2.65;;;;;;;;;;5024818;28;20037;-74
2022/06/27 01:56:05;;;;;;;10.30;2.75;;;;;;;;;;5020693;28;20068;-74
2022/06/27 01:58:31;;;;;;;9.95;3.08;;;;;;;;;;5022484;28;20033;-74
2022/06/27 02:00:58;;;;;;;10.07;3.13;;;;;;;;;;5030105;28;20033;-74
2022/06/27 02:03:24;;;;;;;8.52;2.42;;;;;;;;;;5027016;28;20030;-74
2022/06/27 02:05:53;;;;;;;9.65;2.92;;;;;;;;;;5029074;28;20079;-74
2022/06/27 02:08:20;;;;;;;8.77;2.90;;;;;;;;;;5029816;28;20043;-74
2022/06/27 02:10:46;;;;;;;11.07;2.80;;;;;;;;;;5028941;28;20037;-74
2022/06/27 02:13:13;;;;;;;9.27;3.25;;;;;;;;;;5017844;28;20029;-74
2022/06/27 02:15:59;;;;;;;6.90;2.88;;;;;;;;;;5022346;28;20037;-74
2022/06/27 02:18:25;;;;;;;8.43;2.92;;;;;;;;;;5024071;28;20136;-74
2022/06/27 02:20:51;;;;;;;7.53;2.80;;;;;;;;;;5021158;28;20080;-74
2022/06/27 02:23:17;;;;;;;10.20;3.90;;;;;;;;;;5028687;28;20674;-74
2022/06/27 02:25:44;;;;;;;9.52;3.60;;;;;;;;;;5021171;28;20048;-74
2022/06/27 02:28:11;;;;;;;10.63;3.92;;;;;;;;;;5025419;28;20036;-74
2022/06/27 02:30:37;;;;;;;10.90;3.95;;;;;;;;;;5026500;28;20113;-74
2022/06/27 02:33:04;;;;;;;8.18;3.58;;;;;;;;;;5029324;28;20640;-74
2022/06/27 02:35:30;;;;;;;11.38;3.70;;;;;;;;;;5028301;28;20029;-74
2022/06/27 02:37:57;;;;;;;12.48;3.80;;;;;;;;;;5029418;28;20123;-74
2022/06/27 02:40:23;;;;;;;10.25;3.78;;;;;;;;;;5024566;28;20102;-74
2022/06/27 02:42:51;;;;;;;8.63;3.30;;;;;;;;;;5022552;28;20466;-74
2022/06/27 02:45:18;;;;;;;11.07;4.32;;;;;;;;;;5028095;28;20036;-74
2022/06/27 02:47:45;;;;;;;9.07;3.60;;;;;;;;;;5021992;28;20033;-75
2022/06/27 02:50:11;;;;;;;8.98;3.30;;;;;;;;;;5026724;28;20103;-74
2022/06/27 02:52:41;;;;;;;11.48;3.88;;;;;;;;;;5028211;28;20075;-74
2022/06/27 02:55:12;;;;;;;11.23;3.75;;;;;;;;;;5016888;28;20546;-75
2022/06/27 02:57:44;;;;;;;8.82;2.90;;;;;;;;;;5020640;28;20038;-74
2022/06/27 03:00:10;;;;;;;7.35;2.97;;;;;;;;;;5026530;28;20029;-75
2022/06/27 03:02:37;;;;;;;8.75;3.10;;;;;;;;;;5022830;28;20034;-74
2022/06/27 03:05:04;;;;;;;8.15;2.75;;;;;;;;;;5028974;28;20033;-74
2022/06/27 03:07:30;;;;;;;8.55;3.25;;;;;;;;;;5024994;28;20124;-74
2022/06/27 03:10:01;;;;;;;7.38;2.00;;;;;;;;;;5020496;28;20033;-74
2022/06/27 03:12:27;;;;;;;8.93;1.90;;;;;;;;;;5022988;28;20032;-74
2022/06/27 03:14:53;;;;;;;10.60;5.80;;;;;;;;;;5026252;28;20041;-74
2022/06/27 03:17:19;;;;;;;7.80;3.03;;;;;;;;;;5027672;28;20033;-74
2022/06/27 03:19:45;;;;;;;8.75;2.35;;;;;;;;;;5028379;28;20029;-74
2022/06/27 03:22:11;;;;;;;7.65;1.80;;;;;;;;;;5021388;28;20487;-74
2022/06/27 03:24:37;;;;;;;8.80;1.55;;;;;;;;;;5028468;28;20105;-74
2022/06/27 03:27:04;;;;;;;6.20;1.63;;;;;;;;;;5022016;28;20038;-74
2022/06/27 03:29:30;;;;;;;8.55;1.60;;;;;;;;;;5017889;28;20037;-74
2022/06/27 03:31:56;;;;;;;5.82;1.40;;;;;;;;;;5023570;28;20033;-74
2022/06/27 03:34:23;;;;;;;6.32;1.60;;;;;;;;;;5028542;28;20052;-74
2022/06/27 03:36:49;;;;;;;4.93;1.38;;;;;;;;;;5026311;28;20365;-74
2022/06/27 03:39:15;;;;;;;10.02;1.83;;;;;;;;;;5027659;28;20113;-75
2022/06/27 03:41:41;;;;;;;5.85;1.65;;;;;;;;;;5022680;28;20839;-74
2022/06/27 03:44:08;;;;;;;6.85;1.58;;;;;;;;;;5024944;28;20112;-74
2022/06/27 03:46:35;;;;;;;6.43;1.55;;;;;;;;;;5020048;28;20083;-74
2022/06/27 03:51:46;;;;;;;9.82;1.65;;;;;;;;;;5014149;28;20149;-74
2022/06/27 03:54:12;;;;;;;6.75;1.40;;;;;;;;;;5027966;28;20031;-74
2022/06/27 03:56:38;;;;;;;5.68;1.63;;;;;;;;;;5025029;28;20037;-74
2022/06/27 03:59:04;;;;;;;4.80;1.38;;;;;;;;;;5021349;28;20475;-75
2022/06/27 04:01:30;;;;;;;9.95;1.30;;;;;;;;;;5025417;28;20044;-74
2022/06/27 04:03:56;;;;;;;4.97;1.17;;;;;;;;;;5022265;28;20455;-74
2022/06/27 04:06:22;;;;;;;3.10;1.00;;;;;;;;;;5015065;28;20064;-74
2022/06/27 04:08:48;;;;;;;8.07;1.52;;;;;;;;;;5023265;28;20493;-74
2022/06/27 04:11:15;;;;;;;3.33;0.95;;;;;;;;;;5027485;28;20044;-74
2022/06/27 04:13:41;;;;;;;7.43;1.88;;;;;;;;;;5018543;28;20140;-74
2022/06/27 04:16:07;;;;;;;6.35;1.85;;;;;;;;;;5025847;28;20084;-74
2022/06/27 04:18:34;;;;;;;5.15;1.20;;;;;;;;;;5024354;28;20076;-74
2022/06/27 04:21:00;;;;;;;4.88;1.20;;;;;;;;;;5026363;28;20029;-74
2022/06/27 04:23:26;;;;;;;5.75;1.25;;;;;;;;;;5019646;28;20037;-74
2022/06/27 04:25:52;;;;;;;4.15;1.15;;;;;;;;;;5022523;28;20758;-74
2022/06/27 04:28:18;;;;;;;3.05;1.08;;;;;;;;;;5016839;28;20049;-74
2022/06/27 04:30:44;;;;;;;4.43;1.10;;;;;;;;;;5017696;28;20052;-74
2022/06/27 04:33:11;;;;;;;6.80;1.42;;;;;;;;;;5020424;28;20021;-74
2022/06/27 04:35:40;;;;;;;7.07;1.50;;;;;;;;;;5020873;28;20026;-74
2022/06/27 04:38:06;;;;;;;7.47;1.67;;;;;;;;;;5024248;28;20025;-74
2022/06/27 04:40:32;;;;;;;4.28;1.10;;;;;;;;;;5020161;28;20033;-74
2022/06/27 04:42:59;;;;;;;4.63;1.00;;;;;;;;;;5022944;28;20382;-74
2022/06/27 04:45:27;;;;;;;2.83;0.88;;;;;;;;;;5024632;28;20121;-74
2022/06/27 04:47:54;;;;;;;3.00;0.60;;;;;;;;;;5024059;28;20038;-75
2022/06/27 04:50:21;;;;;;;3.75;1.10;;;;;;;;;;5027088;28;20132;-74
2022/06/27 04:52:48;;;;;;;3.75;0.68;;;;;;;;;;5023834;28;20034;-74
2022/06/27 04:55:15;;;;;;;2.28;0.60;;;;;;;;;;5023749;28;20206;-75
2022/06/27 04:57:42;;;;;;;4.35;0.80;;;;;;;;;;5017895;28;20404;-74
2022/06/27 05:00:09;;;;;;;5.28;0.90;;;;;;;;;;5013240;28;20537;-74
2022/06/27 05:02:36;;;;;;;3.25;0.63;;;;;;;;;;5021165;28;20066;-74
2022/06/27 05:05:03;;;;;;;4.88;0.70;;;;;;;;;;5027351;28;20042;-74
2022/06/27 05:07:30;;;;;;;6.55;0.73;;;;;;;;;;5020114;28;20033;-74
2022/06/27 05:09:57;;;;;;;5.10;0.98;;;;;;;;;;5013329;28;20030;-74
2022/06/27 05:12:24;;;;;;;5.43;0.77;;;;;;;;;;5018551;28;20037;-74
2022/06/27 05:14:50;;;;;;;7.40;0.98;;;;;;;;;;5024533;28;20411;-74
2022/06/27 05:17:16;;;;;;;7.57;0.70;;;;;;;;;;5025425;28;20034;-74
2022/06/27 05:19:42;;;;;;;3.67;0.70;;;;;;;;;;5023256;28;20038;-74
2022/06/27 05:22:09;;;;;;;4.15;0.90;;;;;;;;;;5026332;28;20650;-74
2022/06/27 05:24:35;;;;;;;8.52;0.90;;;;;;;;;;5028714;28;20072;-74
2022/06/27 05:27:01;;;;;;;4.28;0.60;;;;;;;;;;5029266;28;20048;-74
2022/06/27 05:29:27;;;;;;;7.43;0.88;;;;;;;;;;5023019;28;20136;-74
2022/06/27 05:31:53;;;;;;;2.38;0.60;;;;;;;;;;5020220;28;20849;-75
2022/06/27 05:34:19;;;;;;;5.85;0.70;;;;;;;;;;5021041;28;20025;-74
2022/06/27 05:36:45;;;;;;;7.60;1.13;;;;;;;;;;5021019;28;20048;-74
2022/06/27 05:39:11;;;;;;;6.13;1.00;;;;;;;;;;5021368;28;20029;-74
2022/06/27 05:41:37;;;;;;;7.82;0.60;;;;;;;;;;5024278;28;20036;-74
2022/06/27 05:44:03;;;;;;;4.43;0.80;;;;;;;;;;5019951;28;20095;-74
2022/06/27 05:46:29;;;;;;;3.72;0.70;;;;;;;;;;5022035;28;20026;-73
2022/06/27 05:48:57;;;;;;;3.60;0.95;;;;;;;;;;5024484;28;20029;-74
2022/06/27 05:51:24;;;;;;;6.97;0.70;;;;;;;;;;5015063;28;20080;-74
2022/06/27 05:53:51;;;;;;;5.05;0.88;;;;;;;;;;5017551;28;20056;-74
2022/06/27 05:56:17;;;;;;;5.35;0.70;;;;;;;;;;5019380;28;20034;-74
2022/06/27 05:58:43;;;;;;;5.00;0.85;;;;;;;;;;5026526;28;20031;-74
2022/06/27 06:01:10;;;;;;;4.57;0.82;;;;;;;;;;5017665;28;20738;-74
2022/06/27 06:03:37;;;;;;;4.18;0.70;;;;;;;;;;5020061;28;20072;-73
2022/06/27 06:06:04;;;;;;;2.38;0.60;;;;;;;;;;5017204;28;20032;-74
2022/06/27 06:08:31;;;;;;;5.97;1.00;;;;;;;;;;5023309;28;20033;-73
2022/06/27 06:10:57;;;;;;;2.75;0.65;;;;;;;;;;5049661;23;20081;-73
2022/06/27 06:13:25;;;;;;;5.18;0.80;;;;;;;;;;5038151;28;20617;-74
2022/06/27 06:15:52;;;;;;;6.72;0.85;;;;;;;;;;5035879;28;20029;-74
2022/06/27 06:18:18;;;;;;;4.97;0.73;;;;;;;;;;5039090;28;20520;-74
2022/06/27 06:20:44;;;;;;;2.85;0.60;;;;;;;;;;5039322;28;20033;-74
2022/06/27 06:23:11;;;;;;;3.80;0.65;;;;;;;;;;5040604;28;20467;-73
2022/06/27 06:25:37;;;;;;;4.50;0.70;;;;;;;;;;5041188;28;20035;-74
2022/06/27 06:28:04;;;;;;;3.58;0.50;;;;;;;;;;5043229;28;20029;-74
2022/06/27 06:30:34;;;;;;;3.42;0.60;;;;;;;;;;5035359;28;20048;-74
2022/06/27 06:33:03;;;;;;;5.00;0.65;;;;;;;;;;5040157;28;20037;-74
2022/06/27 06:35:30;;;;;;;3.03;0.73;;;;;;;;;;5037870;28;20127;-74
2022/06/27 06:37:57;;;;;;;6.50;0.75;;;;;;;;;;5033303;28;20835;-74
2022/06/27 06:40:23;;;;;;;5.75;0.65;;;;;;;;;;5040156;28;20044;-73
2022/06/27 06:42:49;;;;;;;2.53;0.70;;;;;;;;;;5035656;28;20069;-74
2022/06/27 06:45:15;;;;;;;3.08;0.60;;;;;;;;;;5035139;28;20052;-74
2022/06/27 06:47:43;;;;;;;3.42;0.60;;;;;;;;;;5034943;28;20485;-73
2022/06/27 06:50:10;;;;;;;4.03;0.70;;;;;;;;;;5047015;28;20055;-73
2022/06/27 06:52:39;;;;;;;5.97;0.75;;;;;;;;;;5044322;28;20094;-73
2022/06/27 06:55:06;;;;;;;3.13;0.80;;;;;;;;;;5044019;28;20044;-73
2022/06/27 06:57:32;;;;;;;6.88;0.63;;;;;;;;;;5036184;28;20037;-74
2022/06/27 06:59:58;;;;;;;5.22;0.75;;;;;;;;;;5043038;28;20037;-73
2022/06/27 07:02:25;;;;;;;5.78;0.90;;;;;;;;;;5039569;28;20226;-74
2022/06/27 07:04:52;;;;;;;6.90;0.90;;;;;;;;;;5043131;28;20033;-73
2022/06/27 07:07:19;;;;;;;8.77;0.80;;;;;;;;;;5036680;28;20025;-74
2022/06/27 07:09:45;;;;;;;6.28;0.82;;;;;;;;;;5041868;28;20069;-74
2022/06/27 07:12:11;;;;;;;3.88;0.63;;;;;;;;;;5044907;28;20071;-73
2022/06/27 07:14:37;;;;;;;3.85;0.75;;;;;;;;;;5046549;28;20037;-74
2022/06/27 07:17:03;;;;;;;3.33;0.75;;;;;;;;;;5039945;28;20031;-74
2022/06/27 07:19:29;;;;;;;4.25;1.00;;;;;;;;;;5042465;28;20037;-73
2022/06/27 07:21:55;;;;;;;4.28;0.70;;;;;;;;;;5041010;28;20025;-74
2022/06/27 07:24:21;;;;;;;3.70;0.70;;;;;;;;;;5044831;28;20029;-74
2022/06/27 07:26:47;;;;;;;2.92;0.80;;;;;;;;;;5034379;28;20037;-74
2022/06/27 07:29:13;;;;;;;5.88;1.23;;;;;;;;;;5040765;28;20115;-74
2022/06/27 07:31:39;;;;;;;10.23;1.00;;;;;;;;;;5035547;28;20039;-74
2022/06/27 07:34:08;;;;;;;5.88;0.80;;;;;;;;;;5044819;28;20045;-74
2022/06/27 07:36:35;;;;;;;4.05;0.70;;;;;;;;;;5037776;28;20440;-74
2022/06/27 07:39:03;;;;;;;5.88;0.70;;;;;;;;;;5039316;28;20033;-74
2022/06/27 07:41:32;;;;;;;7.70;0.75;;;;;;;;;;5038950;28;20025;-74
2022/06/27 07:44:00;;;;;;;4.95;0.95;;;;;;;;;;5040883;28;20029;-74
2022/06/27 07:46:26;;;;;;;3.40;0.73;;;;;;;;;;5039113;28;20372;-74
2022/06/27 07:48:52;;;;;;;2.60;0.60;;;;;;;;;;5034665;28;20037;-74
2022/06/27 07:51:21;;;;;;;4.00;0.63;;;;;;;;;;5038836;28;20060;-74
2022/06/27 07:53:48;;;;;;;5.00;0.80;;;;;;;;;;5044246;28;20041;-74
2022/06/27 07:56:16;;;;;;;3.80;0.77;;;;;;;;;;5036525;28;20033;-73
2022/06/27 07:58:42;;;;;;;5.18;0.82;;;;;;;;;;5038971;28;20029;-73
2022/06/27 08:01:10;;;;;;;6.00;0.60;;;;;;;;;;5041984;28;20127;-73
2022/06/27 08:03:36;;;;;;;6.50;0.60;;;;;;;;;;5038316;28;20036;-74
2022/06/27 08:06:05;;;;;;;3.15;0.80;;;;;;;;;;5041782;28;20090;-73
2022/06/27 08:08:33;;;;;;;3.97;0.90;;;;;;;;;;5039560;28;20029;-74
2022/06/27 08:10:59;;;;;;;4.43;0.85;;;;;;;;;;5031531;28;20064;-74
2022/06/27 08:13:28;;;;;;;3.35;0.85;;;;;;;;;;5035725;28;20116;-73
2022/06/27 08:15:55;;;;;;;3.38;0.70;;;;;;;;;;5036647;28;20489;-73
2022/06/27 08:18:21;;;;;;;6.32;1.08;;;;;;;;;;5048584;28;20060;-73
2022/06/27 08:20:47;;;;;;;5.70;0.80;;;;;;;;;;5034507;28;20061;-73
2022/06/27 08:23:14;;;;;;;5.90;0.75;;;;;;;;;;5043330;28;20087;-74
2022/06/27 08:25:41;;;;;;;4.50;0.90;;;;;;;;;;5039023;28;20107;-73
2022/06/27 08:28:08;;;;;;;4.20;1.05;;;;;;;;;;5042273;28;20021;-73
2022/06/27 08:30:34;;;;;;;4.70;0.80;;;;;;;;;;5033779;28;20123;-73
2022/06/27 08:33:00;;;;;;;7.55;1.00;;;;;;;;;;5039379;28;20035;-73
2022/06/27 08:35:27;;;;;;;5.30;1.00;;;;;;;;;;5032477;28;20041;-73
2022/06/27 08:37:54;;;;;;;6.03;0.88;;;;;;;;;;5036188;28;20039;-73
2022/06/27 08:40:21;;;;;;;3.72;0.90;;;;;;;;;;5036551;28;20489;-73
2022/06/27 08:42:47;;;;;;;4.75;0.90;;;;;;;;;;5032093;28;20057;-74
2022/06/27 08:45:20;;;;;;;4.45;0.80;;;;;;;;;;5034674;28;20045;-74
2022/06/27 08:47:47;;;;;;;11.02;1.15;;;;;;;;;;5039266;28;20048;-74
2022/06/27 08:50:14;;;;;;;3.25;0.70;;;;;;;;;;5036032;28;20037;-74
2022/06/27 08:52:41;;;;;;;5.88;0.70;;;;;;;;;;5037716;28;20040;-74
2022/06/27 08:55:08;;;;;;;2.83;0.60;;;;;;;;;;5043527;28;20036;-74
2022/06/27 08:57:41;;;;;;;4.93;0.93;;;;;;;;;;5040487;28;20086;-74
2022/06/27 09:00:08;;;;;;;6.97;1.00;;;;;;;;;;5036651;28;20068;-74
2022/06/27 09:02:42;;;;;;;16.13;1.48;;;;;;;;;;5036348;28;20025;-74
2022/06/27 09:05:26;;;;;;;8.65;1.20;;;;;;;;;;5039664;28;20072;-75
2022/06/27 09:07:53;;;;;;;6.78;1.40;;;;;;;;;;5040317;28;20033;-75
2022/06/27 09:10:39;;;;;;;6.50;0.98;;;;;;;;;;5030564;28;20384;-75
2022/06/27 09:13:10;;;;;;;5.93;1.15;;;;;;;;;;5052876;28;20033;-75
2022/06/27 09:15:45;;;;;;;6.18;1.02;;;;;;;;;;5032393;28;20508;-75
2022/06/27 09:18:12;;;;;;;9.68;1.00;;;;;;;;;;5039562;28;20056;-75
2022/06/27 09:20:52;;;;;;;3.13;0.70;;;;;;;;;;5032649;28;20451;-75
2022/06/27 09:23:53;;;;;;;9.02;1.33;;;;;;;;;;5041098;28;20113;-75
2022/06/27 09:26:21;;;;;;;1.67;0.70;;;;;;;;;;5044357;28;20480;-75
2022/06/27 09:28:52;;;;;;;2.60;0.60;;;;;;;;;;5035209;28;20483;-75
2022/06/27 09:31:25;;;;;;;3.75;0.70;;;;;;;;;;5038261;28;20041;-75
2022/06/27 09:34:00;;;;;;;4.05;0.80;;;;;;;;;;5052313;28;20039;-75
2022/06/27 09:36:28;;;;;;;3.72;0.68;;;;;;;;;;5040216;28;20039;-75
2022/06/27 09:38:54;;;;;;;2.40;0.68;;;;;;;;;;5037017;28;20428;-75
2022/06/27 09:41:21;;;;;;;2.97;0.73;;;;;;;;;;5031903;28;20057;-75
2022/06/27 09:43:49;;;;;;;3.10;0.55;;;;;;;;;;5040466;28;20504;-75
2022/06/27 09:46:17;;;;;;;4.55;0.80;;;;;;;;;;5043987;28;20475;-75
2022/06/27 09:48:44;;;;;;;3.70;0.70;;;;;;;;;;5045850;28;20623;-75
2022/06/27 09:51:17;;;;;;;4.13;0.90;;;;;;;;;;5038183;28;20045;-75
2022/06/27 09:53:50;;;;;;;3.60;0.85;;;;;;;;;;5032356;28;20483;-75
2022/06/27 09:56:20;;;;;;;4.50;1.17;;;;;;;;;;5042947;28;20526;-75
2022/06/27 09:58:46;;;;;;;3.65;0.70;;;;;;;;;;5043731;28;20112;-75
2022/06/27 10:01:12;;;;;;;2.53;0.52;;;;;;;;;;5037523;28;21023;-75
2022/06/27 10:03:40;;;;;;;4.18;0.68;;;;;;;;;;5036597;28;20119;-74
2022/06/27 10:06:07;;;;;;;3.00;0.60;;;;;;;;;;5030943;28;20025;-74
2022/06/27 10:08:40;;;;;;;4.32;0.50;;;;;;;;;;5040869;28;20030;-74
2022/06/27 10:11:10;;;;;;;5.10;0.70;;;;;;;;;;5036073;28;20045;-75
2022/06/27 10:13:37;;;;;;;2.53;0.70;;;;;;;;;;5038307;28;20025;-75
2022/06/27 10:16:08;;;;;;;3.65;0.63;;;;;;;;;;5038806;28;20123;-75
2022/06/27 10:19:09;;;;;;;8.43;0.75;;;;;;;;;;5037685;28;20049;-75
2022/06/27 10:21:43;;;;;;;4.40;1.00;;;;;;;;;;5025942;28;20108;-74
2022/06/27 10:24:24;;;;;;;5.50;0.60;;;;;;;;;;5035906;28;20041;-74
2022/06/27 10:26:51;;;;;;;5.63;0.77;;;;;;;;;;5038480;28;20042;-75
2022/06/27 10:29:26;;;;;;;4.13;0.93;;;;;;;;;;5032533;28;20039;-75
2022/06/27 10:31:52;;;;;;;3.20;0.75;;;;;;;;;;5037680;28;20034;-74
2022/06/27 10:34:18;;;;;;;2.22;0.60;;;;;;;;;;5032531;28;20033;-75
2022/06/27 10:36:44;;;;;;;6.80;0.90;;;;;;;;;;5039955;28;20037;-74
2022/06/27 10:39:20;;;;;;;6.57;0.95;;;;;;;;;;5035264;28;20032;-74
2022/06/27 10:41:46;;;;;;;4.65;0.70;;;;;;;;;;5036311;28;20075;-75
2022/06/27 10:44:31;;;;;;;3.47;0.70;;;;;;;;;;5043561;28;20378;-75
2022/06/27 10:46:57;;;;;;;5.07;0.73;;;;;;;;;;5040644;28;20061;-75
2022/06/27 10:49:24;;;;;;;2.80;0.70;;;;;;;;;;5034079;28;20033;-75
2022/06/27 10:51:51;;;;;;;4.32;0.90;;;;;;;;;;5030632;28;20588;-75
2022/06/27 10:54:17;;;;;;;2.05;0.40;;;;;;;;;;5029654;28;20028;-75
2022/06/27 10:56:47;;;;;;;1.67;0.40;;;;;;;;;;5037347;28;20029;-74
2022/06/27 10:59:16;;;;;;;2.05;0.50;;;;;;;;;;5037014;28;20057;-74
2022/06/27 11:01:52;;;;;;;4.05;0.60;;;;;;;;;;5034355;28;20021;-75
2022/06/27 11:04:25;;;;;;;3.00;0.55;;;;;;;;;;5037926;28;20025;-75
2022/06/27 11:06:55;;;;;;;3.40;0.60;;;;;;;;;;5028107;28;20120;-74
2022/06/27 11:09:21;;;;;;;5.55;0.60;;;;;;;;;;5036277;28;20048;-75
2022/06/27 11:11:56;;;;;;;2.10;0.68;;;;;;;;;;5033597;28;20116;-75
2022/06/27 11:14:22;;;;;;;6.07;0.73;;;;;;;;;;5033533;28;20039;-75
2022/06/27 11:16:48;;;;;;;6.88;0.60;;;;;;;;;;5033630;28;20026;-75
2022/06/27 11:21:59;;;;;;;2.55;0.55;;;;;;;;;;5037113;28;20092;-74
2022/06/27 11:24:26;;;;;;;3.78;0.73;;;;;;;;;;5033618;28;20033;-75
2022/06/27 11:26:54;;;;;;;7.70;0.70;;;;;;;;;;5039546;28;20049;-75
2022/06/27 11:32:15;;;;;;;6.90;0.68;;;;;;;;;;5073327;28;20433;-74
2022/06/27 11:34:43;;;;;;;3.30;0.55;;;;;;;;;;5056189;28;20040;-75
2022/06/27 11:37:10;;;;;;;3.03;0.80;;;;;;;;;;5043435;28;20043;-75
2022/06/27 11:39:37;;;;;;;3.45;0.60;;;;;;;;;;5058337;28;20250;-75
2022/06/27 11:42:09;;;;;;;7.13;0.88;;;;;;;;;;5059852;28;20039;-75
2022/06/27 11:44:36;;;;;;;6.15;0.70;;;;;;;;;;5056854;28;20119;-75
2022/06/27 11:47:07;;;;;;;10.68;0.75;;;;;;;;;;5063877;28;20028;-75
2022/06/27 11:49:37;;;;;;;3.88;0.70;;;;;;;;;;5056424;28;20543;-75
2022/06/27 11:52:04;;;;;;;2.60;0.60;;;;;;;;;;5060988;28;20501;-75
2022/06/27 11:54:37;;;;;;;4.80;0.90;;;;;;;;;;5056607;28;20037;-75
2022/06/27 11:57:03;;;;;;;6.80;0.88;;;;;;;;;;5056899;28;20044;-75
2022/06/27 11:59:30;;;;;;;5.68;0.88;;;;;;;;;;5055873;28;20706;-75
2022/06/27 12:02:01;;;;;;;4.93;0.75;;;;;;;;;;5056363;28;20780;-74
2022/06/27 12:04:27;;;;;;;3.97;0.73;;;;;;;;;;5060200;28;20041;-75
2022/06/27 12:06:55;;;;;;;4.72;0.70;;;;;;;;;;5057916;28;20085;-77
2022/06/27 12:09:21;;;;;;;3.38;0.65;;;;;;;;;;5054648;28;20110;-77
2022/06/27 12:11:48;;;;;;;4.22;0.60;;;;;;;;;;5057635;28;20037;-77
2022/06/27 12:14:14;;;;;;;3.47;0.68;;;;;;;;;;5053997;28;20078;-77
2022/06/27 12:16:44;;;;;;;2.90;0.70;;;;;;;;;;5056416;28;20473;-77
2022/06/27 12:19:10;;;;;;;5.43;0.50;;;;;;;;;;5055749;28;20032;-77
2022/06/27 12:21:36;;;;;;;2.53;0.45;;;;;;;;;;5057372;28;20032;-77
2022/06/27 12:24:03;;;;;;;1.67;0.50;;;;;;;;;;5039552;28;20129;-77
2022/06/27 12:26:29;;;;;;;4.75;0.80;;;;;;;;;;5040219;28;20052;-77
2022/06/27 12:28:55;;;;;;;3.80;0.65;;;;;;;;;;5056880;28;20043;-77
2022/06/27 12:31:21;;;;;;;3.67;0.60;;;;;;;;;;5036859;28;20045;-77
2022/06/27 12:33:47;;;;;;;4.10;0.65;;;;;;;;;;5057956;28;20043;-77
2022/06/27 12:36:14;;;;;;;2.05;0.60;;;;;;;;;;5055157;28;20032;-77
2022/06/27 12:38:41;;;;;;;5.05;0.68;;;;;;;;;;5055677;28;20032;-77
2022/06/27 12:41:16;;;;;;;2.72;0.65;;;;;;;;;;5039724;28;20078;-77
2022/06/27 12:43:43;;;;;;;3.65;0.60;;;;;;;;;;5044128;28;20044;-77
2022/06/27 12:46:10;;;;;;;2.20;0.50;;;;;;;;;;5040140;28;20033;-77
2022/06/27 12:48:38;;;;;;;2.50;0.43;;;;;;;;;;5045560;28;20573;-77
2022/06/27 12:51:04;;;;;;;3.85;0.50;;;;;;;;;;5044394;28;20068;-76
2022/06/27 12:53:31;;;;;;;4.47;0.50;;;;;;;;;;5047592;28;20024;-77
2022/06/27 12:56:01;;;;;;;5.18;0.50;;;;;;;;;;5046452;28;20117;-77
2022/06/27 12:58:27;;;;;;;3.28;0.60;;;;;;;;;;5043366;28;20732;-77
2022/06/27 13:00:53;;;;;;;1.83;0.50;;;;;;;;;;5046956;28;20049;-77
2022/06/27 13:03:19;;;;;;;1.85;0.50;;;;;;;;;;5041774;28;20035;-77
2022/06/27 13:05:46;;;;;;;3.80;0.70;;;;;;;;;;5046261;28;20115;-77
2022/06/27 13:08:12;;;;;;;2.13;0.43;;;;;;;;;;5039847;28;20060;-77
2022/06/27 13:10:38;;;;;;;4.93;0.50;;;;;;;;;;5040376;28;20122;-77
2022/06/27 13:13:05;;;;;;;4.70;0.60;;;;;;;;;;5044513;28;20064;-77
2022/06/27 13:15:34;;;;;;;5.50;0.60;;;;;;;;;;5051614;28;20033;-77
2022/06/27 13:18:00;;;;;;;2.85;0.65;;;;;;;;;;5039216;28;20553;-77
2022/06/27 13:20:26;;;;;;;3.42;0.60;;;;;;;;;;5044189;28;20037;-75
2022/06/27 13:22:52;;;;;;;4.25;0.85;;;;;;;;;;5044865;28;20483;-75
2022/06/27 13:25:19;;;;;;;2.67;0.50;;;;;;;;;;5041870;28;20746;-75
2022/06/27 13:27:45;;;;;;;7.25;0.70;;;;;;;;;;5040677;28;20025;-75
2022/06/27 13:30:12;;;;;;;4.80;0.80;;;;;;;;;;5041495;28;20060;-75
2022/06/27 13:32:38;;;;;;;3.50;0.70;;;;;;;;;;5039459;28;20032;-75
2022/06/27 13:35:04;;;;;;;4.20;0.60;;;;;;;;;;5039293;28;20041;-75
2022/06/27 13:37:30;;;;;;;5.55;0.70;;;;;;;;;;5042307;28;20108;-75
2022/06/27 13:39:56;;;;;;;1.55;0.52;;;;;;;;;;5040617;28;20115;-75
2022/06/27 13:42:23;;;;;;;4.45;0.73;;;;;;;;;;5043126;28;20029;-75
2022/06/27 13:44:49;;;;;;;1.95;0.52;;;;;;;;;;5038115;28;20449;-75
2022/06/27 13:47:16;;;;;;;1.20;0.50;;;;;;;;;;5043470;28;20047;-75
2022/06/27 13:49:42;;;;;;;6.80;0.70;;;;;;;;;;5043131;28;20044;-75
2022/06/27 13:52:08;;;;;;;8.00;0.80;;;;;;;;;;5047185;28;20041;-75
2022/06/27 13:54:34;;;;;;;3.05;0.70;;;;;;;;;;5040371;28;20036;-75
2022/06/27 13:57:00;;;;;;;4.85;0.52;;;;;;;;;;5028083;28;20033;-75
2022/06/27 13:59:27;;;;;;;5.68;0.60;;;;;;;;;;5040670;28;20867;-75
2022/06/27 14:01:53;;;;;;;3.92;0.93;;;;;;;;;;5038571;28;20568;-75
2022/06/27 14:04:19;;;;;;;5.25;0.80;;;;;;;;;;5043752;28;20493;-75
2022/06/27 14:09:29;;;;;;;7.97;0.52;;;;;;;;;;5044673;28;20039;-75
2022/06/27 14:11:56;;;;;;;3.80;0.50;;;;;;;;;;5046438;28;20033;-75
2022/06/27 14:14:21;;;;;;;3.00;0.63;;;;;;;;;;5042238;28;20037;-75
2022/06/27 14:16:48;;;;;;;2.45;0.60;;;;;;;;;;5045614;28;20048;-75
2022/06/27 14:19:16;;;;;;;5.43;0.60;;;;;;;;;;5042682;28;20029;-75
2022/06/27 14:21:42;;;;;;;4.70;0.90;;;;;;;;;;5042563;28;20060;-76
2022/06/27 14:24:08;;;;;;;6.75;0.70;;;;;;;;;;5045870;28;20084;-76
2022/06/27 14:26:35;;;;;;;4.43;1.10;;;;;;;;;;5041526;28;20413;-76
2022/06/27 14:29:01;;;;;;;2.80;0.80;;;;;;;;;;5041858;28;20057;-76
2022/06/27 14:31:27;;;;;;;4.35;0.50;;;;;;;;;;5029240;28;20085;-76
2022/06/27 14:33:53;;;;;;;5.15;0.77;;;;;;;;;;5046685;28;20063;-76
2022/06/27 14:36:19;;;;;;;2.55;0.52;;;;;;;;;;5035239;28;20510;-76
2022/06/27 14:38:45;;;;;;;1.85;0.50;;;;;;;;;;5042488;28;20033;-76
2022/06/27 14:41:11;;;;;;;3.97;0.70;;;;;;;;;;5027697;28;20475;-76
2022/06/27 14:43:37;;;;;;;4.38;0.68;;;;;;;;;;5042702;28;20074;-76
2022/06/27 14:46:04;;;;;;;7.10;0.60;;;;;;;;;;5037302;28;20939;-76
2022/06/27 14:48:30;;;;;;;4.75;0.70;;;;;;;;;;5037140;28;20078;-76
2022/06/27 14:50:56;;;;;;;3.10;0.70;;;;;;;;;;5027959;28;20043;-76
2022/06/27 14:53:23;;;;;;;4.47;0.70;;;;;;;;;;5036976;28;20745;-76
2022/06/27 14:55:49;;;;;;;3.42;0.60;;;;;;;;;;5036757;28;20029;-75